Hauptseite
METAR-TAF:

METAR-TAF

Flughäfen :

Flughafen Karlstad

Karlstad, Schweden

Breite: 59-26-41N, Länge: 013-20-15E, Höhe: 107 m

Beobachtung

Neuester Wetterbericht von vor 25 Minuten, um 23:50 UTC
Wind 2 kt aus unterschiedlichen Richtungen
Temperatur 0°C
Luftfeuchtigkeit 100%
Luftdruck 1006 hPa
Sichtweite 10 km oder mehr

METAR: ESOK 162350Z AUTO VRB02KT 9999 FEW051/// BKN075/// 00/00 Q1006

Zeit: 02:15 (00:15 UTC)

Prognose

Neuester Wetterbericht von vor 12 Stunden und 45 Minuten, um 11:30 UTC
Gültige Prognose vom 16 um 12 UTC bis 16 um 15 UTC
Wind 9 kt aus Nord/Nordost
Sichtweite 10 km oder mehr
keine Wolken unter 1500 m und keine Kumulonimbus oder Gewitterwolken
Wahrscheinlichkeit 40%
vom 16 um 12 UTC bis 16 um 15 UTC
Aufgelockert bewölkt in der Höhe von 4000 ft, Towering cumulus.

TAF: ESOK 161130Z 1612/1615 03009KT CAVOK PROB40 1612/1615 SCT040TCU

Wetterbeobachtungen und Prognosen von mehr als 4000 Flughäfen (METAR und TAF Bericht).

Die verfügbaren Stationen werden durch gelbe und rote Markierungen auf der Karte dargestellt.

Führen Sie die Maus auf sie, um den Namen der Station zu sehen.

Darauf klicken, um die Beobachtung von Wetterbeobachtungen und Prognosen zu sehen.

Um die Karte zu ändern : klicken Sie auf den grünen Tasten mit einem schwarzen Kreuz Zum Vergrößern, auf den grünen Button mit einem Gedankenstrich zu verkleinern, oder auf die grünen Pfeile für benachbarte Karten.


METAR-TAF: